KIRK/IRK METAR and TAF weather

Enter ICAO airport designator
Station Type Date Time Source
KIRK METAR 2018/12/11 19:55 UTC NOAA

KIRK 111955Z AUTO 22009KT 10SM CLR 08/01 A2997 RMK AO2 SLP160 T00830006


Station Type Date Time Source
KIRK Decoded METAR 2018/12/11 19:55 UTC NOAA

KIRKSVILLE REGIONAL AIRPORT , MO, United States (KIRK) 40-06N 092-33W 293M
Dec 11, 2018 - 02:55 PM EST / 2018.12.11 1955 UTC
Wind: from the SW (220 degrees) at 10 MPH (9 KT):0
Visibility: 10 mile(s):0
Sky conditions: clear
Temperature: 46.9 F (8.3 C)
Dew Point: 33.1 F (0.6 C)
Relative Humidity: 58%
Pressure (altimeter): 29.97 in. Hg (1014 hPa)
ob: KIRK 111955Z AUTO 22009KT 10SM CLR 08/01 A2997 RMK AO2 SLP160 T00830006
cycle: 20

Station Type Date Time Source
KIRK TAF UTC NOAA

Error!


Example: see airport list